Time;durP1;ratioP1;P1;durP2;ratioP2;P2;SDS_P1;SDS_P2;PMS_P1;PMS_P2;Temp;Humidity;BMP_temperature;BMP_pressure;BME280_temperature;BME280_humidity;BME280_pressure;Samples;Min_cycle;Max_cycle;Signal;HPM_P1;HPM_P2
2023/12/22 00:01:19;;;;;;;14.43;3.30;;;12.90;99.90;;;;;;5091828;28;20494;-68
2023/12/22 00:03:46;;;;;;;13.77;2.67;;;12.90;99.90;;;;;;5091978;28;20035;-68
2023/12/22 00:06:12;;;;;;;7.93;2.22;;;12.80;99.90;;;;;;5092004;28;20032;-68
2023/12/22 00:08:38;;;;;;;9.90;2.67;;;12.80;99.90;;;;;;5092253;28;20051;-67
2023/12/22 00:11:03;;;;;;;12.38;2.20;;;12.70;99.90;;;;;;5091805;28;20025;-68
2023/12/22 00:13:29;;;;;;;8.93;2.28;;;12.60;99.90;;;;;;5091367;28;20115;-68
2023/12/22 00:15:55;;;;;;;10.70;2.40;;;12.70;99.90;;;;;;5091739;28;20032;-68
2023/12/22 00:18:21;;;;;;;10.45;2.50;;;12.60;99.90;;;;;;5091765;28;20082;-68
2023/12/22 00:20:46;;;;;;;9.23;2.20;;;12.60;99.90;;;;;;5091639;28;20103;-69
2023/12/22 00:23:12;;;;;;;7.07;1.88;;;12.60;99.90;;;;;;5091765;28;20023;-68
2023/12/22 00:25:38;;;;;;;8.38;2.08;;;12.60;99.90;;;;;;5091515;28;20031;-68
2023/12/22 00:28:03;;;;;;;8.35;1.90;;;12.60;99.90;;;;;;5091586;28;20024;-68
2023/12/22 00:30:29;;;;;;;7.63;2.00;;;12.50;99.90;;;;;;5091482;28;20031;-68
2023/12/22 00:32:55;;;;;;;11.48;2.30;;;12.50;99.90;;;;;;5091549;28;20111;-68
2023/12/22 00:35:20;;;;;;;10.40;2.63;;;12.50;99.90;;;;;;5091752;28;20027;-68
2023/12/22 00:37:46;;;;;;;11.45;2.97;;;12.50;99.90;;;;;;5091314;28;20035;-67
2023/12/22 00:40:12;;;;;;;14.75;3.25;;;12.50;99.90;;;;;;5090893;28;20034;-68
2023/12/22 00:42:38;;;;;;;17.13;3.53;;;12.50;99.90;;;;;;5091023;28;20024;-68
2023/12/22 00:45:04;;;;;;;15.38;3.42;;;12.50;99.90;;;;;;5091198;28;20097;-68
2023/12/22 00:47:29;;;;;;;15.93;3.25;;;12.50;99.90;;;;;;5091308;28;20016;-68
2023/12/22 00:49:55;;;;;;;14.98;3.40;;;12.50;99.90;;;;;;5091504;28;20451;-68
2023/12/22 00:52:21;;;;;;;13.68;3.08;;;12.50;99.90;;;;;;5091340;28;20099;-68
2023/12/22 00:54:47;;;;;;;15.25;3.50;;;12.50;99.90;;;;;;5091142;28;20028;-68
2023/12/22 00:57:14;;;;;;;16.33;3.88;;;12.50;99.90;;;;;;5090793;28;20031;-68
2023/12/22 00:59:45;;;;;;;18.98;4.05;;;12.50;99.90;;;;;;5091135;28;20024;-69
2023/12/22 01:02:11;;;;;;;15.98;3.47;;;12.60;99.90;;;;;;5091101;28;20027;-69
2023/12/22 01:04:36;;;;;;;18.90;3.72;;;12.80;99.90;;;;;;5091136;28;20024;-68
2023/12/22 01:07:02;;;;;;;16.98;4.07;;;13.00;99.90;;;;;;5091552;28;20020;-69
2023/12/22 01:09:27;;;;;;;16.75;3.53;;;13.00;99.90;;;;;;5090962;28;20028;-68
2023/12/22 01:11:53;;;;;;;13.05;3.13;;;13.10;99.90;;;;;;5090644;28;20436;-69
2023/12/22 01:14:19;;;;;;;17.10;3.75;;;13.20;99.90;;;;;;5091131;28;20473;-68
2023/12/22 01:16:44;;;;;;;12.82;3.22;;;13.20;99.90;;;;;;5090875;28;20044;-68
2023/12/22 01:19:10;;;;;;;12.98;2.97;;;13.20;99.90;;;;;;5091494;28;20039;-69
2023/12/22 01:21:36;;;;;;;11.45;2.75;;;13.30;99.90;;;;;;5090886;28;20024;-68
2023/12/22 01:24:02;;;;;;;12.55;3.00;;;13.30;99.90;;;;;;5090840;28;20020;-68
2023/12/22 01:26:27;;;;;;;10.35;2.95;;;13.30;99.90;;;;;;5090725;28;20374;-68
2023/12/22 01:28:53;;;;;;;11.27;3.30;;;13.40;99.90;;;;;;5090915;28;20032;-68
2023/12/22 01:31:19;;;;;;;14.60;3.83;;;13.40;99.90;;;;;;5090744;28;20024;-68
2023/12/22 01:33:45;;;;;;;16.17;3.80;;;13.30;99.90;;;;;;5090944;28;20027;-68
2023/12/22 01:36:10;;;;;;;17.50;4.15;;;13.10;99.90;;;;;;5091107;28;20032;-68
2023/12/22 01:38:36;;;;;;;15.90;3.88;;;13.00;99.90;;;;;;5090777;28;20452;-68
2023/12/22 01:41:02;;;;;;;15.35;3.88;;;13.00;99.90;;;;;;5090330;28;20386;-68
2023/12/22 01:43:27;;;;;;;15.15;3.65;;;12.80;99.90;;;;;;5090844;28;20067;-68
2023/12/22 01:45:58;;;;;;;13.43;3.08;;;12.80;99.90;;;;;;5090644;28;20109;-68
2023/12/22 01:48:25;;;;;;;9.63;2.65;;;12.70;99.90;;;;;;5090834;28;20382;-67
2023/12/22 01:50:53;;;;;;;9.80;2.45;;;12.70;99.90;;;;;;5093531;28;20116;-67
2023/12/22 01:53:23;;;;;;;8.90;2.20;;;12.60;99.90;;;;;;5094385;28;20108;-68
2023/12/22 01:55:50;;;;;;;6.22;1.90;;;12.60;99.90;;;;;;5094062;28;20040;-67
2023/12/22 01:58:17;;;;;;;7.85;1.80;;;12.60;99.90;;;;;;5094678;28;20513;-67
2023/12/22 02:00:43;;;;;;;9.30;2.10;;;12.50;99.90;;;;;;5094198;28;20436;-67
2023/12/22 02:03:08;;;;;;;9.93;2.50;;;12.50;99.90;;;;;;5094396;28;20080;-68
2023/12/22 02:05:34;;;;;;;8.23;2.22;;;12.50;99.90;;;;;;5094303;28;20394;-68
2023/12/22 02:08:00;;;;;;;7.50;1.85;;;12.40;99.90;;;;;;5094405;28;20031;-68
2023/12/22 02:10:26;;;;;;;12.70;2.80;;;12.40;99.90;;;;;;5093911;28;20394;-68
2023/12/22 02:12:51;;;;;;;11.00;3.00;;;12.40;99.90;;;;;;5093979;28;20027;-67
2023/12/22 02:15:17;;;;;;;13.57;2.85;;;12.40;99.90;;;;;;5094048;28;20024;-67
2023/12/22 02:17:48;;;;;;;15.52;3.13;;;12.40;99.90;;;;;;5094036;28;20063;-68
2023/12/22 02:20:14;;;;;;;17.08;3.83;;;12.40;99.90;;;;;;5094259;28;20020;-68
2023/12/22 02:22:40;;;;;;;13.63;2.90;;;12.40;99.90;;;;;;5093817;28;20516;-68
2023/12/22 02:25:06;;;;;;;15.57;3.50;;;12.40;99.90;;;;;;5093627;28;20044;-67
2023/12/22 02:27:47;;;;;;;16.02;3.72;;;12.40;99.90;;;;;;5093725;28;20030;-68
2023/12/22 02:30:47;;;;;;;20.10;4.50;;;12.40;99.90;;;;;;5094103;28;20020;-68
2023/12/22 02:33:15;;;;;;;17.73;4.38;;;12.40;99.90;;;;;;5051547;28;20041;-68
2023/12/22 02:35:42;;;;;;;20.92;4.10;;;12.40;99.90;;;;;;5051124;28;20123;-67
2023/12/22 02:38:08;;;;;;;19.65;3.97;;;12.50;99.90;;;;;;5051118;28;20029;-68
2023/12/22 02:40:35;;;;;;;13.57;3.38;;;12.40;99.90;;;;;;5050555;28;20090;-68
2023/12/22 02:43:02;;;;;;;14.43;3.47;;;12.40;99.90;;;;;;5051505;28;20041;-68
2023/12/22 02:45:29;;;;;;;19.80;4.43;;;12.50;99.90;;;;;;5050942;28;20396;-68
2023/12/22 02:47:54;;;;;;;19.88;3.95;;;12.40;99.90;;;;;;5050874;28;20479;-69
2023/12/22 02:50:20;;;;;;;15.85;4.30;;;12.50;99.90;;;;;;5050796;28;20048;-69
2023/12/22 02:52:46;;;;;;;17.08;3.42;;;12.70;99.90;;;;;;5051158;28;20473;-68
2023/12/22 02:55:11;;;;;;;15.68;3.67;;;12.90;99.90;;;;;;5050355;28;20041;-69
2023/12/22 02:57:37;;;;;;;12.55;3.25;;;12.90;99.90;;;;;;5050989;28;20485;-68
2023/12/22 03:00:03;;;;;;;15.25;3.30;;;13.00;99.90;;;;;;5050654;28;20048;-68
2023/12/22 03:02:29;;;;;;;14.88;3.63;;;13.20;99.90;;;;;;5049964;28;20041;-67
2023/12/22 03:04:55;;;;;;;15.30;3.78;;;13.30;99.90;;;;;;5050456;28;20021;-68
2023/12/22 03:07:20;;;;;;;16.65;4.13;;;13.30;99.90;;;;;;5050667;28;20582;-66
2023/12/22 03:09:46;;;;;;;15.68;3.80;;;13.30;99.90;;;;;;5070511;28;20041;-68
2023/12/22 03:12:12;;;;;;;18.77;4.15;;;13.30;99.90;;;;;;5072887;28;20574;-68
2023/12/22 03:14:37;;;;;;;14.48;3.38;;;13.30;99.90;;;;;;5072750;28;20516;-69
2023/12/22 03:17:05;;;;;;;17.70;3.72;;;13.40;99.90;;;;;;5072680;28;20037;-68
2023/12/22 03:19:31;;;;;;;19.90;3.72;;;13.30;99.90;;;;;;5072576;28;20023;-67
2023/12/22 03:21:57;;;;;;;12.77;3.13;;;13.20;99.90;;;;;;5072612;28;20083;-67
2023/12/22 03:24:24;;;;;;;14.38;3.53;;;13.10;99.90;;;;;;5072541;28;20052;-68
2023/12/22 03:26:50;;;;;;;13.98;3.50;;;12.90;99.90;;;;;;5072398;28;20066;-68
2023/12/22 03:29:16;;;;;;;13.82;3.70;;;12.90;99.90;;;;;;5072787;28;20390;-68
2023/12/22 03:31:42;;;;;;;17.42;3.75;;;12.70;99.90;;;;;;5072283;28;20090;-68
2023/12/22 03:34:08;;;;;;;15.30;3.38;;;12.70;99.90;;;;;;5072287;28;20417;-68
2023/12/22 03:36:34;;;;;;;17.38;3.92;;;12.60;99.90;;;;;;5071875;28;20029;-68
2023/12/22 03:38:59;;;;;;;15.50;3.72;;;12.60;99.90;;;;;;5072321;28;20066;-67
2023/12/22 03:41:25;;;;;;;13.93;3.42;;;12.50;99.90;;;;;;5088198;28;20077;-68
2023/12/22 03:43:51;;;;;;;15.82;4.13;;;12.60;99.90;;;;;;5092582;28;20021;-68
2023/12/22 03:46:16;;;;;;;16.02;3.47;;;12.50;99.90;;;;;;5092351;28;20047;-68
2023/12/22 03:48:42;;;;;;;11.18;2.90;;;12.50;99.90;;;;;;5092295;28;20016;-67
2023/12/22 03:51:10;;;;;;;12.00;3.08;;;12.50;99.90;;;;;;5091865;28;20036;-67
2023/12/22 03:53:36;;;;;;;14.05;3.08;;;12.50;99.90;;;;;;5092654;28;20436;-67
2023/12/22 03:56:01;;;;;;;16.65;3.83;;;12.50;99.90;;;;;;5092047;28;20040;-68
2023/12/22 03:58:29;;;;;;;10.20;3.17;;;12.40;99.90;;;;;;5092241;28;20020;-68
2023/12/22 04:00:55;;;;;;;14.95;3.50;;;12.40;99.90;;;;;;5092502;28;20046;-67
2023/12/22 04:03:21;;;;;;;12.93;3.10;;;12.40;99.90;;;;;;5091895;28;20050;-68
2023/12/22 04:05:46;;;;;;;19.38;4.07;;;12.40;99.90;;;;;;5091561;28;20117;-68
2023/12/22 04:08:12;;;;;;;15.63;4.10;;;12.40;99.90;;;;;;5091855;28;20055;-68
2023/12/22 04:10:37;;;;;;;19.25;4.28;;;12.40;99.90;;;;;;5092253;28;20023;-68
2023/12/22 04:13:03;;;;;;;22.10;4.57;;;12.30;99.90;;;;;;5091047;28;20032;-68
2023/12/22 04:15:29;;;;;;;21.25;4.07;;;12.40;99.90;;;;;;5091708;28;20032;-68
2023/12/22 04:17:54;;;;;;;18.73;4.13;;;12.40;99.90;;;;;;5091806;28;20036;-68
2023/12/22 04:20:20;;;;;;;19.70;3.97;;;12.40;99.90;;;;;;5091400;28;20107;-68
2023/12/22 04:22:46;;;;;;;15.40;3.50;;;12.40;99.90;;;;;;5092023;28;20103;-68
2023/12/22 04:25:11;;;;;;;15.05;3.33;;;12.40;99.90;;;;;;5091704;28;20031;-67
2023/12/22 04:27:37;;;;;;;17.63;3.30;;;12.40;99.90;;;;;;5091505;28;20032;-69
2023/12/22 04:30:03;;;;;;;17.25;3.60;;;12.40;99.90;;;;;;5091782;28;20103;-67
2023/12/22 04:32:28;;;;;;;19.05;4.03;;;12.40;99.90;;;;;;5091265;28;20082;-68
2023/12/22 04:34:54;;;;;;;15.57;3.50;;;12.40;99.90;;;;;;5091627;28;20494;-68
2023/12/22 04:37:20;;;;;;;13.90;2.95;;;12.40;99.90;;;;;;5091552;28;20031;-68
2023/12/22 04:39:46;;;;;;;9.75;2.85;;;12.50;99.90;;;;;;5091363;28;20024;-68
2023/12/22 04:42:11;;;;;;;11.80;2.72;;;12.60;99.90;;;;;;5091826;28;20058;-68
2023/12/22 04:44:37;;;;;;;8.52;2.45;;;12.80;99.90;;;;;;5091016;28;20083;-68
2023/12/22 04:47:03;;;;;;;14.43;3.00;;;12.90;99.90;;;;;;5091645;28;20127;-68
2023/12/22 04:49:28;;;;;;;10.98;3.33;;;13.00;99.90;;;;;;5091034;28;20077;-68
2023/12/22 04:51:54;;;;;;;11.52;2.92;;;13.00;99.90;;;;;;5091169;28;20054;-68
2023/12/22 04:54:20;;;;;;;13.27;2.83;;;13.10;99.90;;;;;;5091268;28;20024;-69
2023/12/22 04:56:45;;;;;;;12.02;2.78;;;13.20;99.90;;;;;;5091210;28;20040;-68
2023/12/22 04:59:11;;;;;;;11.23;3.13;;;13.20;99.90;;;;;;5091200;28;20028;-68
2023/12/22 05:01:37;;;;;;;10.25;2.60;;;13.20;99.90;;;;;;5091396;28;20032;-68
2023/12/22 05:04:02;;;;;;;14.13;3.10;;;13.10;99.90;;;;;;5090817;28;20141;-68
2023/12/22 05:06:31;;;;;;;9.85;2.70;;;13.30;99.90;;;;;;5091226;28;20367;-68
2023/12/22 05:08:56;;;;;;;12.50;3.22;;;13.20;99.90;;;;;;5091148;28;20031;-68
2023/12/22 05:11:22;;;;;;;9.63;2.67;;;13.20;99.90;;;;;;5091464;28;20394;-68
2023/12/22 05:13:48;;;;;;;10.30;2.60;;;13.10;99.90;;;;;;5091060;28;20402;-68
2023/12/22 05:16:14;;;;;;;11.52;3.22;;;12.90;99.90;;;;;;5089590;28;20036;-68
2023/12/22 05:18:40;;;;;;;9.52;3.05;;;12.80;99.90;;;;;;5090646;28;20533;-68
2023/12/22 05:21:05;;;;;;;16.10;3.22;;;12.70;99.90;;;;;;5091064;28;20024;-67
2023/12/22 05:23:32;;;;;;;12.38;2.95;;;12.60;99.90;;;;;;5091357;28;20070;-68
2023/12/22 05:25:58;;;;;;;14.88;2.83;;;12.50;99.90;;;;;;5094184;28;20021;-68
2023/12/22 05:28:24;;;;;;;13.77;3.15;;;12.50;99.90;;;;;;5095016;28;20440;-68
2023/12/22 05:30:49;;;;;;;12.48;3.65;;;12.50;99.90;;;;;;5094909;28;20051;-68
2023/12/22 05:33:15;;;;;;;19.83;3.90;;;12.50;99.90;;;;;;5094266;28;20052;-67
2023/12/22 05:35:41;;;;;;;13.75;3.15;;;12.40;99.90;;;;;;5094813;28;20028;-68
2023/12/22 05:38:06;;;;;;;15.32;3.00;;;12.50;99.90;;;;;;5094171;28;20044;-68
2023/12/22 05:40:32;;;;;;;10.40;2.55;;;12.40;99.90;;;;;;5086275;28;20052;-68
2023/12/22 05:42:58;;;;;;;10.05;2.78;;;12.40;99.90;;;;;;5074575;28;20060;-68
2023/12/22 05:45:24;;;;;;;13.55;3.33;;;12.40;99.90;;;;;;5074035;28;20498;-68
2023/12/22 05:47:50;;;;;;;12.18;3.03;;;12.40;99.90;;;;;;5074118;28;20086;-68
2023/12/22 05:50:17;;;;;;;9.77;2.83;;;12.40;99.90;;;;;;5074108;28;20437;-68
2023/12/22 05:52:44;;;;;;;11.35;2.70;;;12.50;99.90;;;;;;5074144;28;20028;-68
2023/12/22 05:55:10;;;;;;;9.30;2.58;;;12.40;99.90;;;;;;5074427;28;20142;-68
2023/12/22 05:57:36;;;;;;;15.07;3.20;;;12.40;99.90;;;;;;5074276;28;20498;-68
2023/12/22 06:00:04;;;;;;;10.90;2.90;;;12.40;99.90;;;;;;5074430;28;20037;-67
2023/12/22 06:02:30;;;;;;;15.00;3.35;;;12.30;99.90;;;;;;5073670;28;20032;-67
2023/12/22 06:04:55;;;;;;;14.93;3.38;;;12.40;99.90;;;;;;5074350;28;20024;-68
2023/12/22 06:07:21;;;;;;;11.50;3.05;;;12.40;99.90;;;;;;5074093;28;20037;-68
2023/12/22 06:09:47;;;;;;;14.90;3.63;;;12.40;99.90;;;;;;5073997;28;20032;-68
2023/12/22 06:12:12;;;;;;;13.38;3.28;;;12.40;99.90;;;;;;5072552;28;20056;-67
2023/12/22 06:14:38;;;;;;;12.63;3.13;;;12.40;99.90;;;;;;5074121;28;20090;-68
2023/12/22 06:17:04;;;;;;;10.73;2.60;;;12.40;99.90;;;;;;5073564;28;20494;-68
2023/12/22 06:19:30;;;;;;;13.25;2.85;;;12.40;99.90;;;;;;5073812;28;20027;-68
2023/12/22 06:21:57;;;;;;;11.45;3.03;;;12.30;99.90;;;;;;5073631;28;20025;-69
2023/12/22 06:24:26;;;;;;;15.68;3.28;;;12.40;99.90;;;;;;5074006;28;20043;-68
2023/12/22 06:26:52;;;;;;;16.17;3.50;;;12.50;99.90;;;;;;5074042;28;20037;-68
2023/12/22 06:29:17;;;;;;;14.82;3.15;;;12.60;99.90;;;;;;5073586;28;20047;-69
2023/12/22 06:31:43;;;;;;;14.50;3.75;;;12.80;99.90;;;;;;5073337;28;20502;-68
2023/12/22 06:34:09;;;;;;;18.60;3.78;;;12.90;99.90;;;;;;5073689;28;20039;-68
2023/12/22 06:36:34;;;;;;;14.05;4.28;;;12.90;99.90;;;;;;5072711;28;20037;-68
2023/12/22 06:39:00;;;;;;;19.27;4.32;;;13.00;99.90;;;;;;5073456;28;20111;-68
2023/12/22 06:41:28;;;;;;;24.33;4.53;;;13.20;99.90;;;;;;5073022;28;20043;-67
2023/12/22 06:43:55;;;;;;;19.92;4.32;;;13.20;99.90;;;;;;5073258;28;20021;-67
2023/12/22 06:46:22;;;;;;;10.75;3.38;;;13.20;99.90;;;;;;5073093;28;20513;-67
2023/12/22 06:48:48;;;;;;;11.30;3.15;;;13.30;99.90;;;;;;5073352;28;20056;-67
2023/12/22 06:51:30;;;;;;;10.95;3.08;;;13.20;99.90;;;;;;5072807;28;20016;-67
2023/12/22 06:53:56;;;;;;;9.77;2.38;;;13.20;99.90;;;;;;5073040;28;20398;-67
2023/12/22 06:56:24;;;;;;;11.05;2.42;;;13.20;99.90;;;;;;5073094;28;20043;-67
2023/12/22 06:58:51;;;;;;;9.13;2.42;;;13.00;99.90;;;;;;5072971;28;20505;-67
2023/12/22 07:01:23;;;;;;;10.30;2.50;;;12.90;99.90;;;;;;5072577;28;20499;-67
2023/12/22 07:03:50;;;;;;;11.00;2.63;;;12.70;99.90;;;;;;5073270;28;20021;-67
2023/12/22 07:06:16;;;;;;;10.20;2.58;;;12.60;99.90;;;;;;5072930;28;20025;-67
2023/12/22 07:08:43;;;;;;;18.80;4.53;;;12.60;99.90;;;;;;5072967;28;20025;-68
2023/12/22 07:11:09;;;;;;;17.70;3.50;;;12.60;99.90;;;;;;5072858;28;20437;-68
2023/12/22 07:13:35;;;;;;;12.68;3.00;;;12.50;99.90;;;;;;5072706;28;20378;-68
2023/12/22 07:16:02;;;;;;;15.20;3.53;;;12.40;99.90;;;;;;5072288;28;20028;-67
2023/12/22 07:18:30;;;;;;;17.63;4.38;;;12.40;99.90;;;;;;5072727;28;20056;-68
2023/12/22 07:20:57;;;;;;;14.52;3.42;;;12.40;99.90;;;;;;5072845;28;20099;-67
2023/12/22 07:23:23;;;;;;;17.02;3.85;;;12.30;99.90;;;;;;5072569;28;20116;-68
2023/12/22 07:25:48;;;;;;;16.10;3.45;;;12.30;99.90;;;;;;5072536;28;20103;-67
2023/12/22 07:28:15;;;;;;;14.10;3.30;;;12.30;99.90;;;;;;5071083;28;20522;-70
2023/12/22 07:30:41;;;;;;;11.52;3.38;;;12.30;99.90;;;;;;5072325;28;20097;-70
2023/12/22 07:33:07;;;;;;;14.68;4.10;;;12.30;99.90;;;;;;5072348;28;20158;-69
2023/12/22 07:35:33;;;;;;;11.43;3.13;;;12.30;99.90;;;;;;5072421;28;20039;-70
2023/12/22 07:37:59;;;;;;;12.98;3.10;;;12.30;99.90;;;;;;5072363;28;20056;-69
2023/12/22 07:40:24;;;;;;;11.90;3.47;;;12.30;99.90;;;;;;5079482;28;20551;-69
2023/12/22 07:42:54;;;;;;;17.55;3.45;;;12.30;99.90;;;;;;5092424;28;20024;-67
2023/12/22 07:45:19;;;;;;;21.52;3.28;;;12.30;99.90;;;;;;5092212;28;20086;-68
2023/12/22 07:47:46;;;;;;;8.93;2.70;;;12.40;99.90;;;;;;5092209;28;20095;-68
2023/12/22 07:50:12;;;;;;;10.05;2.60;;;12.30;99.90;;;;;;5092482;28;20067;-68
2023/12/22 07:52:38;;;;;;;12.45;2.67;;;12.30;99.90;;;;;;5092153;28;20036;-68
2023/12/22 07:55:11;;;;;;;11.77;2.97;;;12.30;99.90;;;;;;5092044;28;20430;-66
2023/12/22 07:57:37;;;;;;;13.60;3.57;;;12.30;99.90;;;;;;5091697;28;20457;-66
2023/12/22 08:00:05;;;;;;;16.23;3.58;;;12.30;99.90;;;;;;5091949;28;20028;-65
2023/12/22 08:02:31;;;;;;;15.45;3.90;;;12.30;99.90;;;;;;5091975;28;20493;-65
2023/12/22 08:04:57;;;;;;;14.15;3.83;;;12.30;99.90;;;;;;5091982;28;20077;-66
2023/12/22 08:07:22;;;;;;;12.93;3.92;;;12.60;99.90;;;;;;5092248;28;20035;-65
2023/12/22 08:09:48;;;;;;;20.00;4.28;;;12.70;99.90;;;;;;5091973;28;20024;-66
2023/12/22 08:12:14;;;;;;;16.15;4.57;;;12.90;99.90;;;;;;5091416;28;20035;-66
2023/12/22 08:14:40;;;;;;;17.77;3.88;;;13.00;99.90;;;;;;5092137;28;20127;-66
2023/12/22 08:17:06;;;;;;;16.23;4.45;;;13.10;99.90;;;;;;5091738;28;20125;-66
2023/12/22 08:19:32;;;;;;;17.27;4.00;;;13.20;99.90;;;;;;5091832;28;20070;-66
2023/12/22 08:21:58;;;;;;;16.02;3.80;;;13.30;99.90;;;;;;5091756;28;20035;-66
2023/12/22 08:24:24;;;;;;;14.43;3.92;;;13.40;99.90;;;;;;5091985;28;20522;-66
2023/12/22 08:26:50;;;;;;;18.50;4.22;;;13.40;99.90;;;;;;5091335;28;20028;-66
2023/12/22 08:29:16;;;;;;;15.70;3.83;;;13.50;99.90;;;;;;5091629;28;20394;-66
2023/12/22 08:31:42;;;;;;;21.92;4.28;;;13.40;99.90;;;;;;5092246;28;20021;-66
2023/12/22 08:34:07;;;;;;;19.35;4.20;;;13.50;99.90;;;;;;5091591;28;20559;-66
2023/12/22 08:36:33;;;;;;;17.40;3.80;;;13.50;99.90;;;;;;5091488;28;20038;-66
2023/12/22 08:38:58;;;;;;;19.40;3.65;;;13.40;99.90;;;;;;5091386;28;20043;-66
2023/12/22 08:41:24;;;;;;;14.30;3.90;;;13.30;99.90;;;;;;5090919;28;20032;-66
2023/12/22 08:43:50;;;;;;;19.55;4.00;;;13.20;99.90;;;;;;5091752;28;20012;-65
2023/12/22 08:46:16;;;;;;;14.82;4.40;;;13.10;99.90;;;;;;5091358;28;20038;-66
2023/12/22 08:48:42;;;;;;;17.75;4.45;;;13.00;99.90;;;;;;5091391;28;20024;-66
2023/12/22 08:51:08;;;;;;;17.27;4.05;;;13.00;99.90;;;;;;5091454;28;20032;-66
2023/12/22 08:53:36;;;;;;;18.85;3.67;;;12.90;99.90;;;;;;5091553;28;20032;-66
2023/12/22 08:56:07;;;;;;;13.73;3.72;;;12.90;99.90;;;;;;5090865;28;20028;-66
2023/12/22 08:58:32;;;;;;;15.10;3.25;;;12.90;99.90;;;;;;5091238;28;20110;-66
2023/12/22 09:00:58;;;;;;;15.95;3.50;;;12.80;99.90;;;;;;5090812;28;20115;-66
2023/12/22 09:03:24;;;;;;;9.18;2.15;;;12.80;99.90;;;;;;5091554;28;20064;-66
2023/12/22 09:05:49;;;;;;;8.43;2.40;;;12.80;99.90;;;;;;5091376;28;20044;-66
2023/12/22 09:08:16;;;;;;;8.07;2.47;;;12.80;99.90;;;;;;5091130;28;20076;-66
2023/12/22 09:10:41;;;;;;;10.82;2.53;;;12.80;99.90;;;;;;5090835;28;20436;-66
2023/12/22 09:13:07;;;;;;;11.38;1.90;;;12.70;99.90;;;;;;5091130;28;20031;-66
2023/12/22 09:15:33;;;;;;;8.95;2.38;;;12.70;99.90;;;;;;5091406;28;20031;-66
2023/12/22 09:17:58;;;;;;;11.43;2.92;;;12.70;99.90;;;;;;5091052;28;20553;-66
2023/12/22 09:20:24;;;;;;;11.60;2.63;;;12.70;99.90;;;;;;5091057;28;20478;-66
2023/12/22 09:22:50;;;;;;;11.15;3.08;;;12.70;99.90;;;;;;5090973;28;20498;-66
2023/12/22 09:25:15;;;;;;;13.68;3.70;;;12.80;99.90;;;;;;5091068;28;20031;-66
2023/12/22 09:27:41;;;;;;;11.27;3.45;;;12.80;99.90;;;;;;5091142;28;20043;-66
2023/12/22 09:30:07;;;;;;;14.55;3.60;;;12.90;99.90;;;;;;5090836;28;20035;-66
2023/12/22 09:32:34;;;;;;;13.70;3.70;;;12.90;99.90;;;;;;5091000;28;20028;-66
2023/12/22 09:35:00;;;;;;;11.73;3.35;;;12.90;99.90;;;;;;5091456;28;20028;-66
2023/12/22 09:37:26;;;;;;;11.15;3.00;;;13.00;99.90;;;;;;5090796;28;20043;-66
2023/12/22 09:39:52;;;;;;;12.40;3.40;;;12.90;99.90;;;;;;5090426;28;20578;-66
2023/12/22 09:42:19;;;;;;;9.45;2.80;;;13.00;99.90;;;;;;5090791;28;20039;-66
2023/12/22 09:44:48;;;;;;;13.55;3.13;;;13.00;99.90;;;;;;5090702;28;20045;-66
2023/12/22 09:47:17;;;;;;;9.07;2.42;;;13.00;99.90;;;;;;5090721;28;20509;-67
2023/12/22 09:49:44;;;;;;;8.30;2.25;;;12.90;99.90;;;;;;5090898;28;20019;-66
2023/12/22 09:52:11;;;;;;;8.90;2.10;;;13.20;99.90;;;;;;5090686;28;20028;-66
2023/12/22 09:54:38;;;;;;;10.10;2.40;;;13.30;99.90;;;;;;5090815;28;20016;-66
2023/12/22 09:57:05;;;;;;;11.57;2.58;;;13.40;99.90;;;;;;5090694;28;20481;-66
2023/12/22 09:59:33;;;;;;;10.80;2.42;;;13.60;99.90;;;;;;5090621;28;20039;-66
2023/12/22 10:02:02;;;;;;;12.50;3.15;;;13.70;99.90;;;;;;5090998;28;20077;-66
2023/12/22 10:04:28;;;;;;;10.25;2.67;;;13.70;99.90;;;;;;5090645;28;20055;-66
2023/12/22 10:07:00;;;;;;;12.43;2.95;;;13.80;99.90;;;;;;5090583;28;20474;-66
2023/12/22 10:09:26;;;;;;;10.40;2.60;;;13.90;99.90;;;;;;5090190;28;20061;-66
2023/12/22 10:11:53;;;;;;;10.65;2.75;;;13.90;99.90;;;;;;5091826;28;20103;-66
2023/12/22 10:14:22;;;;;;;13.63;2.80;;;14.00;99.90;;;;;;5094542;28;20046;-66
2023/12/22 10:16:52;;;;;;;10.75;2.75;;;14.00;99.90;;;;;;5093965;28;20133;-66
2023/12/22 10:19:20;;;;;;;12.93;3.20;;;14.10;99.90;;;;;;5094151;28;20028;-66
2023/12/22 10:21:45;;;;;;;11.43;2.78;;;13.90;99.90;;;;;;5094312;28;20035;-66
2023/12/22 10:24:50;;;;;;;14.15;2.70;;;13.80;99.90;;;;;;5093711;28;20028;-66
2023/12/22 10:27:22;;;;;;;12.45;2.92;;;13.70;99.90;;;;;;5094328;28;20024;-66
2023/12/22 10:29:54;;;;;;;10.63;2.53;;;13.70;99.90;;;;;;5093918;28;20027;-66
2023/12/22 10:32:21;;;;;;;9.48;2.75;;;13.70;99.90;;;;;;5093964;28;20625;-66
2023/12/22 10:34:47;;;;;;;11.02;2.25;;;13.70;99.90;;;;;;5093741;28;20644;-66
2023/12/22 10:37:13;;;;;;;11.73;2.67;;;13.60;99.90;;;;;;5093756;28;20031;-66
2023/12/22 10:39:39;;;;;;;14.20;3.30;;;13.60;99.90;;;;;;5093582;28;20390;-66
2023/12/22 10:42:05;;;;;;;13.52;3.03;;;13.50;99.90;;;;;;5093742;28;20017;-65
2023/12/22 10:44:31;;;;;;;13.65;3.17;;;13.50;99.90;;;;;;5093461;28;20054;-66
2023/12/22 10:46:58;;;;;;;11.38;3.00;;;13.40;99.90;;;;;;5093957;28;20028;-66
2023/12/22 10:49:24;;;;;;;12.73;3.15;;;13.40;99.90;;;;;;5093416;28;20074;-66
2023/12/22 10:51:50;;;;;;;13.82;3.00;;;13.50;99.90;;;;;;5093135;28;20024;-66
2023/12/22 10:54:19;;;;;;;11.90;2.78;;;13.40;99.90;;;;;;5093431;28;20024;-66
2023/12/22 10:56:45;;;;;;;7.97;2.28;;;13.40;99.90;;;;;;5093243;28;20032;-66
2023/12/22 10:59:11;;;;;;;8.35;2.50;;;13.30;99.90;;;;;;5093508;28;20042;-66
2023/12/22 11:01:41;;;;;;;10.88;2.15;;;13.30;99.90;;;;;;5093176;28;20020;-65
2023/12/22 11:04:16;;;;;;;9.98;2.42;;;13.30;99.90;;;;;;5093107;28;20099;-66
2023/12/22 11:06:44;;;;;;;9.30;2.40;;;13.30;99.90;;;;;;5093236;28;20409;-66
2023/12/22 11:09:10;;;;;;;11.13;3.00;;;13.30;99.90;;;;;;5092999;28;20452;-66
2023/12/22 11:11:38;;;;;;;8.23;2.58;;;13.40;99.90;;;;;;5092912;28;20024;-66
2023/12/22 11:14:05;;;;;;;8.88;2.42;;;13.40;99.90;;;;;;5092756;28;20020;-64
2023/12/22 11:16:35;;;;;;;12.60;2.70;;;13.50;99.90;;;;;;5092515;28;20036;-66
2023/12/22 11:19:02;;;;;;;13.98;2.70;;;13.50;99.90;;;;;;5092053;28;20036;-67
2023/12/22 11:21:28;;;;;;;9.07;2.60;;;13.50;99.90;;;;;;5091749;28;20035;-66
2023/12/22 11:23:55;;;;;;;16.08;2.83;;;13.50;99.90;;;;;;5091388;28;20031;-66
2023/12/22 11:26:22;;;;;;;11.73;3.03;;;13.50;99.90;;;;;;5093192;28;20077;-66
2023/12/22 11:28:50;;;;;;;12.55;3.03;;;13.40;99.90;;;;;;5092635;28;20027;-66
2023/12/22 11:31:16;;;;;;;11.45;3.00;;;13.50;99.90;;;;;;5092553;28;20513;-66
2023/12/22 11:33:47;;;;;;;9.48;2.35;;;13.60;99.90;;;;;;5092743;28;20127;-66
2023/12/22 11:36:14;;;;;;;8.07;2.70;;;13.50;99.90;;;;;;5092078;28;20043;-66
2023/12/22 11:38:40;;;;;;;9.90;2.00;;;13.50;99.90;;;;;;5092451;28;20094;-67
2023/12/22 11:41:11;;;;;;;8.65;2.55;;;13.70;99.90;;;;;;5092356;28;20045;-67
2023/12/22 11:43:39;;;;;;;9.82;2.00;;;13.80;99.90;;;;;;5092690;28;20020;-67
2023/12/22 11:46:05;;;;;;;9.60;2.38;;;13.90;99.90;;;;;;5092202;28;20040;-67
2023/12/22 11:48:31;;;;;;;8.65;2.45;;;14.00;99.90;;;;;;5092418;28;20039;-67
2023/12/22 11:50:57;;;;;;;6.95;2.00;;;14.00;99.90;;;;;;5092275;28;20512;-67
2023/12/22 11:53:32;;;;;;;6.38;1.95;;;14.10;99.90;;;;;;5092251;28;20032;-67
2023/12/22 11:55:59;;;;;;;5.95;1.50;;;14.10;99.90;;;;;;5092049;28;20494;-67
2023/12/22 11:58:38;;;;;;;8.07;2.45;;;14.20;99.90;;;;;;5091993;28;20020;-67
2023/12/22 12:01:13;;;;;;;8.30;2.67;;;14.30;99.90;;;;;;5092159;28;20043;-67
2023/12/22 12:03:58;;;;;;;12.63;2.50;;;14.30;99.90;;;;;;5092018;28;20103;-67
2023/12/22 12:06:30;;;;;;;9.10;2.00;;;14.30;99.90;;;;;;5091964;28;20073;-67
2023/12/22 12:09:08;;;;;;;8.55;2.00;;;14.30;99.90;;;;;;5092135;28;20020;-67
2023/12/22 12:11:52;;;;;;;9.77;1.85;;;14.20;99.90;;;;;;5091827;28;20043;-67
2023/12/22 12:14:23;;;;;;;6.82;2.10;;;14.00;99.90;;;;;;5091561;28;20497;-66
2023/12/22 12:16:48;;;;;;;9.25;2.20;;;13.90;99.90;;;;;;5091460;28;20036;-66
2023/12/22 12:19:14;;;;;;;8.02;1.92;;;13.90;99.90;;;;;;5091185;28;20031;-66
2023/12/22 12:21:40;;;;;;;9.15;2.00;;;13.80;99.90;;;;;;5092068;28;20035;-66
2023/12/22 12:24:09;;;;;;;3.00;1.10;;;13.80;99.90;;;;;;5091747;28;20382;-67
2023/12/22 12:26:35;;;;;;;4.03;1.02;;;13.50;99.90;;;;;;5091563;28;20370;-66
2023/12/22 12:29:01;;;;;;;6.05;1.33;;;13.30;99.90;;;;;;5091640;28;20035;-66
2023/12/22 12:31:41;;;;;;;6.07;1.55;;;13.30;99.90;;;;;;5091728;28;20565;-66
2023/12/22 12:34:08;;;;;;;6.97;2.13;;;13.30;99.90;;;;;;5090406;28;20055;-66
2023/12/22 12:36:34;;;;;;;7.07;1.92;;;13.30;99.90;;;;;;5091137;28;20032;-66